createdAt,value
2018-06-21T00:01:45.360Z,5.60
2018-06-21T00:04:13.581Z,6.50
2018-06-21T00:06:41.786Z,5.30
2018-06-21T00:09:10.466Z,5.60
2018-06-21T00:11:38.952Z,6.00
2018-06-21T00:14:07.163Z,5.40
2018-06-21T00:16:35.389Z,5.83
2018-06-21T00:19:03.345Z,5.17
2018-06-21T00:21:31.308Z,6.20
2018-06-21T00:23:59.541Z,5.37
2018-06-21T00:26:27.733Z,5.93
2018-06-21T00:28:55.963Z,5.80
2018-06-21T00:31:24.152Z,5.33
2018-06-21T00:33:52.342Z,6.77
2018-06-21T00:36:20.544Z,5.50
2018-06-21T00:38:48.757Z,5.53
2018-06-21T00:41:16.937Z,5.23
2018-06-21T00:43:45.146Z,5.50
2018-06-21T00:46:13.344Z,6.47
2018-06-21T00:48:41.597Z,5.70
2018-06-21T00:51:09.792Z,5.30
2018-06-21T00:53:37.995Z,5.00
2018-06-21T00:56:13.683Z,6.10
2018-06-21T00:58:41.878Z,5.30
2018-06-21T01:01:10.101Z,5.27
2018-06-21T01:03:38.304Z,5.00
2018-06-21T01:06:06.518Z,5.30
2018-06-21T01:08:34.717Z,5.17
2018-06-21T01:11:02.659Z,5.20
2018-06-21T01:13:30.861Z,5.00
2018-06-21T01:15:59.104Z,5.33
2018-06-21T01:18:27.338Z,5.60
2018-06-21T01:20:55.539Z,6.30
2018-06-21T01:23:23.807Z,5.40
2018-06-21T01:25:51.992Z,4.90
2018-06-21T01:28:20.212Z,6.10
2018-06-21T01:30:48.423Z,5.63
2018-06-21T01:33:16.630Z,6.03
2018-06-21T01:35:44.844Z,5.67
2018-06-21T01:38:13.036Z,6.40
2018-06-21T01:40:41.238Z,5.27
2018-06-21T01:43:09.427Z,5.60
2018-06-21T01:45:37.627Z,5.27
2018-06-21T01:48:06.099Z,5.90
2018-06-21T01:50:34.305Z,5.00
2018-06-21T01:53:02.589Z,5.37
2018-06-21T01:55:31.140Z,5.63
2018-06-21T01:57:59.353Z,5.80
2018-06-21T02:23:23.791Z,5.27
2018-06-21T02:25:53.455Z,5.70
2018-06-21T02:28:21.685Z,6.10
2018-06-21T02:30:49.911Z,5.30
2018-06-21T02:33:18.126Z,5.00
2018-06-21T02:35:46.361Z,4.57
2018-06-21T02:38:14.606Z,6.03
2018-06-21T02:40:42.878Z,4.63
2018-06-21T02:43:11.120Z,5.20
2018-06-21T02:45:39.353Z,5.50
2018-06-21T02:48:07.315Z,5.37
2018-06-21T02:50:35.571Z,5.07
2018-06-21T02:53:03.790Z,4.87
2018-06-21T02:55:32.032Z,4.90
2018-06-21T02:58:00.237Z,5.10
2018-06-21T03:00:28.463Z,4.30
2018-06-21T03:02:56.692Z,3.57
2018-06-21T03:05:24.904Z,3.93
2018-06-21T03:07:53.120Z,5.03
2018-06-21T03:10:21.076Z,4.37
2018-06-21T03:12:49.043Z,4.00
2018-06-21T03:15:17.016Z,4.60
2018-06-21T03:17:45.242Z,4.30
2018-06-21T03:20:13.503Z,4.20
2018-06-21T03:22:41.771Z,3.77
2018-06-21T03:25:09.999Z,3.90
2018-06-21T03:27:38.232Z,4.70
2018-06-21T03:30:06.462Z,4.50
2018-06-21T03:32:34.786Z,4.97
2018-06-21T03:35:03.007Z,5.10
2018-06-21T03:37:31.230Z,5.30
2018-06-21T03:39:59.544Z,5.50
2018-06-21T03:42:27.756Z,4.90
2018-06-21T03:44:55.985Z,5.33
2018-06-21T03:47:24.225Z,6.37
2018-06-21T03:49:52.444Z,4.80
2018-06-21T03:52:20.677Z,5.40
2018-06-21T03:54:48.875Z,5.47
2018-06-21T03:57:17.095Z,4.77
2018-06-21T03:59:45.047Z,6.00
2018-06-21T04:02:13.267Z,5.10
2018-06-21T04:04:41.483Z,4.80
2018-06-21T04:07:09.695Z,4.93
2018-06-21T04:09:37.910Z,4.40
2018-06-21T04:12:06.153Z,5.43
2018-06-21T04:14:34.374Z,5.77
2018-06-21T04:17:02.598Z,5.90
2018-06-21T04:19:30.821Z,5.80
2018-06-21T04:21:59.069Z,4.80
2018-06-21T04:24:27.293Z,5.40
2018-06-21T04:26:55.533Z,6.33
2018-06-21T04:29:23.784Z,5.70
2018-06-21T04:31:52.026Z,5.83
2018-06-21T04:34:20.120Z,6.60
2018-06-21T04:36:48.346Z,6.33
2018-06-21T04:39:16.563Z,6.53
2018-06-21T04:41:44.804Z,6.13
2018-06-21T04:44:13.020Z,5.90
2018-06-21T04:46:41.239Z,5.87
2018-06-21T04:49:09.468Z,6.63
2018-06-21T04:51:37.721Z,5.63
2018-06-21T04:54:06.026Z,6.40
2018-06-21T04:56:34.262Z,6.17
2018-06-21T04:59:02.562Z,5.87
2018-06-21T05:01:30.778Z,5.90
2018-06-21T05:03:59.006Z,5.90
2018-06-21T05:06:27.000Z,5.43
2018-06-21T05:08:55.191Z,5.83
2018-06-21T05:11:23.424Z,6.07
2018-06-21T05:13:51.681Z,5.37
2018-06-21T05:16:19.904Z,5.60
2018-06-21T05:18:48.131Z,5.13
2018-06-21T05:21:16.350Z,5.63
2018-06-21T05:23:44.604Z,5.00
2018-06-21T05:26:12.842Z,7.00
2018-06-21T05:28:41.133Z,7.40
2018-06-21T05:31:09.353Z,6.47
2018-06-21T05:33:37.592Z,6.63
2018-06-21T05:36:05.844Z,5.27
2018-06-21T05:38:34.079Z,5.07
2018-06-21T05:41:02.307Z,5.30
2018-06-21T05:43:30.522Z,5.20
2018-06-21T05:45:58.765Z,3.97
2018-06-21T05:48:27.019Z,4.37
2018-06-21T05:50:55.239Z,4.37
2018-06-21T05:53:23.481Z,4.33
2018-06-21T05:55:51.708Z,4.00
2018-06-21T05:58:19.910Z,4.10
2018-06-21T06:00:48.153Z,3.37
2018-06-21T06:03:16.392Z,3.70
2018-06-21T06:05:44.341Z,3.70
2018-06-21T06:08:12.574Z,3.23
2018-06-21T06:10:40.770Z,3.10
2018-06-21T06:13:08.998Z,3.00
2018-06-21T06:15:37.215Z,2.80
2018-06-21T06:18:05.456Z,3.10
2018-06-21T06:20:33.677Z,2.83
2018-06-21T06:23:01.922Z,3.00
2018-06-21T06:25:30.158Z,3.10
2018-06-21T06:27:58.121Z,3.00
2018-06-21T06:30:26.342Z,3.03
2018-06-21T06:32:54.570Z,2.70
2018-06-21T06:35:26.910Z,3.30
2018-06-21T06:37:55.363Z,3.10
2018-06-21T06:40:23.637Z,2.67
2018-06-21T06:42:51.823Z,2.90
2018-06-21T06:45:20.042Z,2.77
2018-06-21T06:47:48.315Z,2.67
2018-06-21T06:50:16.545Z,2.70
2018-06-21T06:52:44.762Z,3.60
2018-06-21T06:55:13.003Z,3.03
2018-06-21T06:57:41.267Z,2.40
2018-06-21T07:00:09.493Z,2.70
2018-06-21T07:02:37.471Z,2.67
2018-06-21T07:05:06.575Z,2.87
2018-06-21T07:07:34.785Z,2.70
2018-06-21T07:10:03.018Z,2.67
2018-06-21T07:12:31.242Z,3.83
2018-06-21T07:14:59.476Z,2.77
2018-06-21T07:17:27.679Z,2.90
2018-06-21T07:19:55.916Z,2.57
2018-06-21T07:22:24.142Z,3.13
2018-06-21T07:24:52.449Z,3.10
2018-06-21T07:27:20.685Z,3.13
2018-06-21T07:29:48.924Z,2.87
2018-06-21T07:32:17.296Z,3.03
2018-06-21T07:34:45.539Z,4.00
2018-06-21T07:37:13.730Z,3.60
2018-06-21T07:39:41.902Z,3.30
2018-06-21T07:42:10.083Z,3.07
2018-06-21T07:44:38.022Z,2.97
2018-06-21T07:47:06.228Z,3.67
2018-06-21T07:49:34.167Z,3.33
2018-06-21T07:52:02.332Z,3.47
2018-06-21T07:54:30.523Z,3.43
2018-06-21T07:56:58.687Z,3.10
2018-06-21T07:59:26.859Z,3.50
2018-06-21T08:01:55.039Z,3.23
2018-06-21T08:04:23.227Z,3.40
2018-06-21T08:06:51.394Z,3.87
2018-06-21T08:09:19.563Z,3.00
2018-06-21T08:11:47.749Z,3.23
2018-06-21T08:14:16.088Z,3.40
2018-06-21T08:16:44.725Z,3.10
2018-06-21T08:19:13.129Z,3.10
2018-06-21T08:21:41.327Z,3.10
2018-06-21T08:24:09.783Z,3.27
2018-06-21T08:26:37.947Z,3.23
2018-06-21T08:29:06.125Z,3.37
2018-06-21T08:31:34.278Z,3.00
2018-06-21T08:34:02.456Z,3.20
2018-06-21T08:36:30.714Z,2.43
2018-06-21T08:38:58.945Z,3.17
2018-06-21T08:41:31.637Z,3.10
2018-06-21T08:43:59.832Z,2.30
2018-06-21T08:46:28.079Z,2.50
2018-06-21T08:48:56.248Z,2.33
2018-06-21T08:51:24.415Z,2.50
2018-06-21T08:53:52.597Z,2.80
2018-06-21T08:56:20.825Z,2.60
2018-06-21T08:58:49.407Z,2.50
2018-06-21T09:01:17.387Z,2.27
2018-06-21T09:03:45.677Z,2.70
2018-06-21T09:06:13.927Z,2.70
2018-06-21T09:08:42.314Z,2.57
2018-06-21T09:11:10.443Z,3.07
2018-06-21T09:13:38.701Z,2.57
2018-06-21T09:16:08.875Z,2.90
2018-06-21T09:18:37.088Z,3.00
2018-06-21T09:21:05.462Z,2.60
2018-06-21T09:23:33.645Z,2.90
2018-06-21T09:26:02.310Z,3.37
2018-06-21T09:28:30.554Z,3.00
2018-06-21T09:30:58.788Z,2.80
2018-06-21T09:33:27.013Z,2.10
2018-06-21T09:35:55.243Z,2.53
2018-06-21T09:38:28.853Z,2.30
2018-06-21T09:41:02.437Z,2.43
2018-06-21T09:43:36.147Z,2.47
2018-06-21T09:46:10.027Z,2.57
2018-06-21T09:48:38.242Z,2.37
2018-06-21T09:51:06.477Z,2.20
2018-06-21T09:53:34.693Z,2.30
2018-06-21T09:56:02.910Z,2.23
2018-06-21T09:58:31.171Z,2.33
2018-06-21T10:01:04.164Z,2.30
2018-06-21T10:03:33.217Z,3.20
2018-06-21T10:06:01.454Z,2.67
2018-06-21T10:08:29.687Z,2.67
2018-06-21T10:10:57.927Z,2.70
2018-06-21T10:13:26.167Z,3.10
2018-06-21T10:15:54.715Z,2.90
2018-06-21T10:18:22.941Z,2.40
2018-06-21T10:20:51.216Z,2.50
2018-06-21T10:23:19.426Z,2.60
2018-06-21T10:25:47.661Z,2.80
2018-06-21T10:28:15.886Z,2.40
2018-06-21T10:30:44.274Z,3.20
2018-06-21T10:33:12.520Z,2.90
2018-06-21T10:35:40.750Z,2.27
2018-06-21T10:38:08.997Z,2.47
2018-06-21T10:40:37.229Z,2.90
2018-06-21T10:43:05.559Z,2.77
2018-06-21T10:45:33.792Z,2.50
2018-06-21T10:48:02.037Z,2.13
2018-06-21T10:50:30.256Z,2.40
2018-06-21T10:52:58.476Z,2.50
2018-06-21T10:55:26.767Z,2.73
2018-06-21T10:57:54.995Z,2.53
2018-06-21T11:00:23.219Z,2.47
2018-06-21T11:02:51.470Z,2.47
2018-06-21T11:05:19.686Z,3.00
2018-06-21T11:07:47.916Z,2.70
2018-06-21T11:10:16.142Z,3.63
2018-06-21T11:12:44.368Z,2.90
2018-06-21T11:15:12.598Z,3.00
2018-06-21T11:17:40.818Z,2.80
2018-06-21T11:20:09.048Z,2.90
2018-06-21T11:22:37.297Z,3.53
2018-06-21T11:25:05.619Z,3.40
2018-06-21T11:27:33.838Z,3.23
2018-06-21T11:30:02.049Z,2.60
2018-06-21T11:32:30.287Z,3.20
2018-06-21T11:34:58.524Z,2.90
2018-06-21T11:37:26.764Z,2.80
2018-06-21T11:39:55.015Z,2.73
2018-06-21T11:42:23.275Z,2.53
2018-06-21T11:44:51.844Z,3.10
2018-06-21T11:47:20.100Z,2.97
2018-06-21T11:49:48.331Z,3.00
2018-06-21T11:52:16.727Z,2.57
2018-06-21T11:54:44.974Z,2.70
2018-06-21T11:57:13.200Z,2.90
2018-06-21T11:59:41.455Z,3.07
2018-06-21T12:02:09.698Z,3.23
2018-06-21T12:04:37.920Z,3.27
2018-06-21T12:07:06.167Z,3.00
2018-06-21T12:09:34.388Z,3.10
2018-06-21T12:12:02.624Z,2.93
2018-06-21T12:14:30.838Z,2.93
2018-06-21T12:16:58.801Z,3.20
2018-06-21T12:19:27.024Z,3.20
2018-06-21T12:21:55.248Z,3.47
2018-06-21T12:24:23.501Z,3.07
2018-06-21T12:26:51.766Z,3.20
2018-06-21T12:29:20.043Z,3.43
2018-06-21T12:31:48.265Z,3.10
2018-06-21T12:34:16.240Z,3.10
2018-06-21T12:36:44.201Z,3.17
2018-06-21T12:39:12.163Z,3.30
2018-06-21T12:41:40.380Z,3.30
2018-06-21T12:44:08.634Z,3.40
2018-06-21T12:46:36.851Z,3.40
2018-06-21T12:49:05.109Z,3.30
2018-06-21T12:51:33.325Z,3.27
2018-06-21T12:54:01.573Z,3.50
2018-06-21T12:56:29.806Z,4.03
2018-06-21T12:58:58.021Z,3.60
2018-06-21T13:01:26.261Z,3.57
2018-06-21T13:03:54.499Z,2.93
2018-06-21T13:06:22.741Z,3.10
2018-06-21T13:09:02.285Z,3.40
2018-06-21T13:12:47.639Z,3.20
2018-06-21T13:15:15.884Z,3.23
2018-06-21T13:17:44.136Z,3.20
2018-06-21T13:20:12.346Z,3.50
2018-06-21T13:22:40.635Z,3.00
2018-06-21T13:25:08.858Z,3.57
2018-06-21T13:27:37.207Z,3.13
2018-06-21T13:30:07.070Z,3.10
2018-06-21T13:32:35.303Z,2.97
2018-06-21T13:35:03.514Z,3.90
2018-06-21T13:37:31.733Z,3.73
2018-06-21T13:39:59.962Z,3.67
2018-06-21T13:42:28.183Z,3.20
2018-06-21T13:44:56.409Z,3.47
2018-06-21T13:47:25.284Z,3.90
2018-06-21T13:49:53.507Z,3.70
2018-06-21T13:52:21.728Z,5.10
2018-06-21T13:54:49.941Z,3.40
2018-06-21T13:57:18.186Z,3.00
2018-06-21T13:59:46.433Z,3.90
2018-06-21T14:02:14.640Z,3.70
2018-06-21T14:04:42.880Z,3.43
2018-06-21T14:07:11.109Z,3.20
2018-06-21T14:09:39.078Z,2.93
2018-06-21T14:12:07.304Z,2.43
2018-06-21T14:14:35.580Z,3.40
2018-06-21T14:17:03.797Z,3.10
2018-06-21T14:19:31.768Z,2.97
2018-06-21T14:21:59.771Z,2.70
2018-06-21T14:24:28.000Z,3.17
2018-06-21T14:26:56.218Z,2.80
2018-06-21T14:29:24.461Z,2.77
2018-06-21T14:31:52.689Z,2.90
2018-06-21T14:34:20.914Z,3.10
2018-06-21T14:36:49.168Z,2.70
2018-06-21T14:39:17.380Z,2.57
2018-06-21T14:41:45.599Z,2.90
2018-06-21T14:44:13.835Z,3.17
2018-06-21T14:46:42.105Z,2.57
2018-06-21T14:49:10.327Z,2.70
2018-06-21T14:51:38.563Z,2.90
2018-06-21T14:54:06.792Z,3.07
2018-06-21T14:56:35.127Z,2.73
2018-06-21T14:59:03.334Z,3.10
2018-06-21T15:01:31.568Z,2.40
2018-06-21T15:03:59.811Z,2.70
2018-06-21T15:06:28.034Z,3.27
2018-06-21T15:08:56.314Z,2.47
2018-06-21T15:11:24.600Z,2.70
2018-06-21T15:13:52.742Z,2.90
2018-06-21T15:16:22.120Z,3.07
2018-06-21T15:18:50.368Z,2.77
2018-06-21T15:21:18.863Z,2.60
2018-06-21T15:23:47.568Z,3.30
2018-06-21T15:26:15.895Z,3.00
2018-06-21T15:28:44.202Z,3.13
2018-06-21T15:31:12.237Z,2.70
2018-06-21T15:33:40.445Z,3.60
2018-06-21T15:36:08.450Z,2.70
2018-06-21T15:38:36.668Z,3.07
2018-06-21T15:41:04.907Z,3.33
2018-06-21T15:43:33.136Z,2.60
2018-06-21T15:46:01.344Z,2.80
2018-06-21T15:48:29.576Z,2.50
2018-06-21T15:50:57.868Z,2.93
2018-06-21T15:53:26.268Z,2.87
2018-06-21T15:55:54.472Z,3.07
2018-06-21T15:58:22.642Z,3.43
2018-06-21T16:00:50.816Z,3.33
2018-06-21T16:03:18.990Z,3.37
2018-06-21T16:05:47.146Z,4.07
2018-06-21T16:08:15.341Z,3.30
2018-06-21T16:10:43.510Z,4.13
2018-06-21T16:13:14.737Z,4.00
2018-06-21T16:15:43.145Z,4.20
2018-06-21T16:18:11.392Z,3.70
2018-06-21T16:20:39.693Z,3.50
2018-06-21T16:23:07.916Z,3.80
2018-06-21T16:25:36.121Z,3.50
2018-06-21T16:28:04.296Z,3.60
2018-06-21T16:30:32.850Z,3.50
2018-06-21T16:33:01.046Z,3.57
2018-06-21T16:35:29.340Z,4.20
2018-06-21T16:37:57.539Z,3.50
2018-06-21T16:40:25.832Z,4.03
2018-06-21T16:42:54.034Z,3.60
2018-06-21T16:45:22.203Z,3.10
2018-06-21T16:47:50.361Z,3.27
2018-06-21T16:50:18.294Z,3.00
2018-06-21T16:52:46.471Z,3.93
2018-06-21T16:55:14.664Z,3.40
2018-06-21T16:57:42.836Z,4.10
2018-06-21T17:00:11.001Z,2.70
2018-06-21T17:02:39.201Z,3.23
2018-06-21T17:05:07.132Z,3.03
2018-06-21T17:07:35.314Z,2.73
2018-06-21T17:10:03.593Z,3.93
2018-06-21T17:12:31.776Z,3.43
2018-06-21T17:14:59.958Z,3.40
2018-06-21T17:17:28.123Z,3.80
2018-06-21T17:19:56.306Z,3.70
2018-06-21T17:22:24.290Z,3.10
2018-06-21T17:24:52.469Z,3.57
2018-06-21T17:27:20.642Z,3.50
2018-06-21T17:29:48.843Z,3.60
2018-06-21T17:32:17.008Z,2.87
2018-06-21T17:34:45.192Z,3.07
2018-06-21T17:37:13.363Z,3.73
2018-06-21T17:39:41.511Z,3.90
2018-06-21T17:42:09.676Z,3.50
2018-06-21T17:44:37.613Z,3.80
2018-06-21T17:47:05.823Z,3.67
2018-06-21T17:49:33.994Z,4.30
2018-06-21T17:52:02.156Z,4.17
2018-06-21T17:54:30.100Z,3.70
2018-06-21T17:56:58.287Z,3.37
2018-06-21T17:59:26.909Z,3.60
2018-06-21T18:01:55.062Z,3.63
2018-06-21T18:04:23.243Z,3.37
2018-06-21T18:06:51.430Z,3.20
2018-06-21T18:09:19.582Z,3.60
2018-06-21T18:11:47.563Z,3.37
2018-06-21T18:14:15.749Z,3.63
2018-06-21T18:16:43.950Z,3.90
2018-06-21T18:19:12.107Z,4.03
2018-06-21T18:21:40.268Z,4.23
2018-06-21T18:24:08.440Z,3.70
2018-06-21T18:26:36.690Z,3.00
2018-06-21T18:29:04.939Z,4.00
2018-06-21T18:31:33.062Z,3.50
2018-06-21T18:34:01.887Z,3.70
2018-06-21T18:36:30.085Z,4.33
2018-06-21T18:38:58.245Z,4.20
2018-06-21T18:41:26.439Z,4.20
2018-06-21T18:43:54.604Z,4.33
2018-06-21T18:46:22.771Z,3.90
2018-06-21T18:48:50.947Z,4.00
2018-06-21T18:51:19.153Z,4.33
2018-06-21T18:53:47.320Z,3.70
2018-06-21T18:56:15.488Z,3.40
2018-06-21T18:58:43.694Z,3.83
2018-06-21T19:01:11.879Z,3.47
2018-06-21T19:03:40.055Z,3.90
2018-06-21T19:06:13.604Z,3.70
2018-06-21T19:08:47.340Z,3.50
2018-06-21T19:11:20.998Z,3.27
2018-06-21T19:13:48.951Z,3.17
2018-06-21T19:16:17.113Z,3.20
2018-06-21T19:18:45.317Z,3.70
2018-06-21T19:21:13.486Z,2.90
2018-06-21T19:23:41.653Z,3.30
2018-06-21T19:26:09.832Z,2.87
2018-06-21T19:28:38.016Z,3.53
2018-06-21T19:31:06.477Z,3.70
2018-06-21T19:33:34.584Z,3.37
2018-06-21T19:36:02.762Z,4.40
2018-06-21T19:38:30.955Z,4.20
2018-06-21T19:40:59.181Z,4.50
2018-06-21T19:43:27.356Z,4.00
2018-06-21T19:45:55.529Z,4.53
2018-06-21T19:48:23.707Z,5.17
2018-06-21T19:50:51.646Z,6.60
2018-06-21T19:53:19.824Z,6.10
2018-06-21T19:55:48.003Z,5.60
2018-06-21T19:58:16.168Z,4.80
2018-06-21T20:00:44.330Z,5.97
2018-06-21T20:03:12.576Z,5.17
2018-06-21T20:05:40.744Z,5.27
2018-06-21T20:08:08.915Z,4.80
2018-06-21T20:10:37.075Z,4.77
2018-06-21T20:13:05.254Z,5.50
2018-06-21T20:15:48.882Z,4.50
2018-06-21T20:18:16.839Z,5.70
2018-06-21T20:20:44.792Z,5.20
2018-06-21T20:23:12.989Z,5.50
2018-06-21T20:25:41.162Z,4.47
2018-06-21T20:28:09.333Z,4.97
2018-06-21T20:30:37.277Z,5.10
2018-06-21T20:33:05.632Z,4.40
2018-06-21T20:35:33.791Z,5.13
2018-06-21T20:38:01.971Z,4.93
2018-06-21T20:40:30.194Z,4.97
2018-06-21T20:42:58.353Z,4.50
2018-06-21T20:45:26.521Z,3.40
2018-06-21T20:47:54.715Z,4.50
2018-06-21T20:50:22.680Z,3.93
2018-06-21T20:52:50.818Z,4.10
2018-06-21T20:55:19.040Z,3.60
2018-06-21T20:57:46.987Z,3.50
2018-06-21T21:00:16.199Z,3.80
2018-06-21T21:02:44.163Z,3.20
2018-06-21T21:05:16.074Z,3.73
2018-06-21T21:07:45.328Z,3.37
2018-06-21T21:10:14.843Z,3.70
2018-06-21T21:12:43.085Z,3.50
2018-06-21T21:15:12.233Z,3.50
2018-06-21T21:17:40.476Z,3.57
2018-06-21T21:20:09.179Z,3.67
2018-06-21T21:22:38.387Z,3.67
2018-06-21T21:25:06.633Z,3.90
2018-06-21T21:27:34.866Z,5.03
2018-06-21T21:30:03.289Z,4.83
2018-06-21T21:32:31.517Z,5.50
2018-06-21T21:34:59.752Z,5.63
2018-06-21T21:37:28.687Z,5.87
2018-06-21T21:40:01.697Z,6.50
2018-06-21T21:42:30.926Z,7.23
2018-06-21T21:44:58.884Z,6.80
2018-06-21T21:47:26.855Z,7.60
2018-06-21T21:49:55.150Z,7.27
2018-06-21T21:52:23.606Z,7.90
2018-06-21T21:54:51.611Z,8.70
2018-06-21T21:57:19.949Z,9.80
2018-06-21T21:59:48.572Z,7.80
2018-06-21T22:02:17.513Z,9.70
2018-06-21T22:04:45.884Z,10.73
2018-06-21T22:07:15.030Z,10.30
2018-06-21T22:09:43.691Z,10.73
2018-06-21T22:12:11.937Z,12.10
2018-06-21T22:14:40.275Z,12.10
2018-06-21T22:17:08.502Z,11.57
2018-06-21T22:19:36.723Z,10.33
2018-06-21T22:22:04.957Z,12.07
2018-06-21T22:24:33.182Z,11.30
2018-06-21T22:27:01.426Z,9.90
2018-06-21T22:29:29.654Z,10.63
2018-06-21T22:31:57.882Z,10.53
2018-06-21T22:34:26.112Z,11.03
2018-06-21T22:36:54.315Z,10.83
2018-06-21T22:39:22.288Z,11.43
2018-06-21T22:41:50.520Z,10.77
2018-06-21T22:44:18.797Z,11.63
2018-06-21T22:46:47.010Z,11.20
2018-06-21T22:49:14.976Z,11.03
2018-06-21T22:51:43.197Z,10.27
2018-06-21T22:54:11.430Z,8.00
2018-06-21T22:56:39.653Z,5.50
2018-06-21T22:59:07.869Z,6.97
2018-06-21T23:01:35.843Z,6.50
2018-06-21T23:04:03.797Z,7.03
2018-06-21T23:06:32.021Z,5.17
2018-06-21T23:09:00.239Z,4.77
2018-06-21T23:11:28.498Z,4.50
2018-06-21T23:13:56.769Z,4.10
2018-06-21T23:16:24.986Z,4.13
2018-06-21T23:18:58.583Z,4.73
2018-06-21T23:21:26.814Z,4.97
2018-06-21T23:23:55.032Z,4.60
2018-06-21T23:26:23.262Z,4.30
2018-06-21T23:28:51.476Z,4.90
2018-06-21T23:31:19.895Z,5.70
2018-06-21T23:33:48.125Z,5.20
2018-06-21T23:36:16.343Z,4.80
2018-06-21T23:38:44.581Z,3.53
2018-06-21T23:41:12.795Z,3.70
2018-06-21T23:43:41.164Z,3.17
2018-06-21T23:46:09.470Z,3.57
2018-06-21T23:48:37.883Z,2.90
2018-06-21T23:51:06.318Z,3.10
2018-06-21T23:53:34.697Z,2.80
2018-06-21T23:56:02.891Z,3.27
2018-06-21T23:58:31.063Z,2.93
